Forest fire From: 18-06-2018 11:00 Until: 19-06-2018 10:14 warning for: Forest fire Level: Yellow info button
suomi:
Metsäpalovaroitus on voimassa.

svenska:
Varning för skogsbrand gäller.

english:
A forest fire warning is in force. 


Thunder radar more information blitzortung!


Löydät sääaseman tiedot myös:

European Weather Network

Finland Weather Exchange

Weather Underground

AWEKAS



Weather Underground säähistoriasivu

Päivittäin yhteenveto Huhtikuu 12, 2017 Yksiköt:  Englantilaiset    Metriset   Molemmat
« Edellinen Päivä
Seuraava Päivä »
Päivittäin Viikoittain Kuukausittain Vuosittain Mukautettu
  Korkea: Matala: Keskiarvo:
Lämpötila: TemperatureC °F -3.8 °F -0.3 °F
Kastepiste: DewpointC °F -4.7 °F -2.5 °F
Kosteus: Humidity % 69 % 84 %
Tuulen nopeus: WindSpeedKMH mph 0.0 mph 0.4 mph
Tuulenpuuska: WindSpeedGustKMH mph - -
Tuuli:- - SSW
Ilmanpaine: PressurehPa in 998.5 in -
Sade: 0.8 in    
Historical Graphs
 
 
Taulukkotiedot Huhtikuu 12, 2017
Aika Lämpötila Kastepiste Ilmanpaine Tuuli Tuulen nopeus Tuulenpuuska Kosteus Sademäärä (tunneittain)
TemperatureC °F DewpointC °F PressurehPa in Calm     Humidity % HourlyPrecipMM in
00:00 -2.7 °F -3.8 °F 1001.6 in Calm   4.8 mph 92 % 0.0 in
00:15 -2.7 °F -3.8 °F 1001.2 in Calm   4.8 mph 92 % 0.0 in
00:30 -2.8 °F -4.1 °F 1001.2 in Calm   3.2 mph 91 % 0.0 in
00:45 -3.2 °F -4.3 °F 1001.2 in Calm     92 % 0.0 in
01:00 -3.3 °F -4.4 °F 1001.2 in Calm     92 % 0.0 in
01:15 -3.6 °F -4.7 °F 1001.2 in Calm     92 % 0.0 in
01:30 -3.6 °F -4.5 °F 1001.2 in Calm   3.2 mph 93 % 0.0 in
01:45 -3.6 °F -4.5 °F 1001.2 in Calm     93 % 0.0 in
02:00 -3.6 °F -4.5 °F 1001.2 in Calm     93 % 0.0 in
02:15 -3.7 °F -4.7 °F 1001.2 in Calm     93 % 0.0 in
02:30 -3.8 °F -4.7 °F 1001.2 in Calm     93 % 0.0 in
02:45 -3.7 °F -4.7 °F 1001.2 in Calm   1.6 mph 93 % 0.0 in
03:00 -3.6 °F -4.5 °F 1001.2 in Calm     93 % 0.0 in
03:15 -3.5 °F -4.3 °F 1001.2 in Calm     94 % 0.0 in
03:30 -3.4 °F -4.3 °F 1001.2 in Calm     94 % 0.0 in
03:45 -3.4 °F -4.3 °F 1001.2 in Calm     94 % 0.0 in
04:00 -3.4 °F -4.2 °F 1000.9 in Calm     94 % 0.0 in
04:15 -3.3 °F -4.1 °F 1000.9 in Calm     94 % 0.0 in
04:30 -3.3 °F -4.1 °F 1000.9 in Calm     94 % 0.0 in
04:45 -3.3 °F -4.1 °F 1000.6 in Calm     94 % 0.0 in
05:00 -3.2 °F -4.0 °F 1000.6 in Calm     94 % 0.0 in
05:15 -3.1 °F -3.9 °F 1000.6 in Calm     94 % 0.0 in
05:30 -2.9 °F -3.8 °F 1000.9 in Calm     94 % 0.0 in
05:45 -2.9 °F -3.8 °F 1000.6 in Calm     94 % 0.0 in
06:00 -2.9 °F -3.8 °F 1000.6 in Calm     94 % 0.0 in
06:15 -2.9 °F -3.8 °F 1000.6 in Calm     94 % 0.0 in
06:30 -2.9 °F -3.8 °F 1000.6 in Calm     94 % 0.0 in
06:45 -2.8 °F -3.7 °F 1000.6 in Calm     94 % 0.0 in
07:00 -2.7 °F -3.6 °F 1000.6 in Calm     94 % 0.0 in
07:15 -2.7 °F -3.4 °F 1000.2 in Calm     95 % 0.0 in
07:30 -2.6 °F -3.2 °F 1000.2 in Calm     95 % 0.0 in
07:45 -2.4 °F -3.3 °F 1000.2 in Calm     94 % 0.0 in
08:00 -2.4 °F -3.2 °F 1000.2 in Calm     94 % 0.0 in
08:15 -2.2 °F -3.1 °F 1000.2 in Calm     94 % 0.0 in
08:30 -1.9 °F -2.8 °F 1000.2 in Calm     94 % 0.0 in
08:45 -1.7 °F -2.7 °F 1000.2 in Calm   3.2 mph 93 % 0.0 in
09:00 -1.4 °F -2.7 °F 1000.6 in Calm   4.8 mph 91 % 0.0 in
09:15 -1.2 °F -2.7 °F 1000.6 in NW 1.6 mph 4.8 mph 89 % 0.0 in
09:30 -0.8 °F -2.5 °F 1000.6 in WNW 1.6 mph 4.8 mph 88 % 0.0 in
09:45 -0.4 °F -2.4 °F 1000.6 in Calm   3.2 mph 86 % 0.0 in
10:00 -0.1 °F -2.5 °F 1000.6 in SSW 1.6 mph 6.4 mph 84 % 0.0 in
10:15 0.0 °F -2.2 °F 1000.6 in Calm   4.8 mph 85 % 0.0 in
10:30 0.2 °F -2.0 °F 1000.2 in SSW 1.6 mph 6.4 mph 85 % 0.0 in
10:45 0.4 °F -1.5 °F 1000.2 in SSW 1.6 mph 4.8 mph 87 % 0.0 in
11:00 1.3 °F -1.1 °F 1000.2 in South 1.6 mph 8.0 mph 84 % 0.0 in
11:15 1.2 °F -1.7 °F 1000.2 in SSE 1.6 mph 6.4 mph 81 % 0.0 in
11:30 1.3 °F -1.4 °F 1000.2 in Calm   3.2 mph 82 % 0.0 in
11:45 1.5 °F -1.2 °F 1000.2 in Calm   6.4 mph 82 % 0.0 in
12:00 1.7 °F -1.9 °F 1000.2 in SE 1.6 mph 9.7 mph 77 % 0.0 in
12:15 1.9 °F -1.9 °F 1000.2 in South 3.2 mph 8.0 mph 76 % 0.0 in
12:30 2.3 °F -1.5 °F 999.9 in South 4.8 mph 12.9 mph 76 % 0.0 in
12:45 2.6 °F -1.6 °F 999.9 in ESE 3.2 mph 8.0 mph 74 % 0.0 in
13:00 2.5 °F -2.2 °F 999.9 in South 3.2 mph 14.5 mph 71 % 0.0 in
13:15 2.2 °F -2.7 °F 999.9 in SSE 3.2 mph 8.0 mph 70 % 0.0 in
13:30 2.6 °F -2.0 °F 999.9 in SSE 1.6 mph 8.0 mph 72 % 0.0 in
13:45 2.9 °F -2.2 °F 999.5 in SSW 1.6 mph 8.0 mph 69 % 0.0 in
14:00 2.8 °F -2.1 °F 999.5 in Calm   4.8 mph 70 % 0.0 in
14:15 2.9 °F -1.2 °F 999.5 in Calm   6.4 mph 74 % 0.0 in
14:30 3.2 °F -1.6 °F 999.2 in Calm   6.4 mph 71 % 0.0 in
14:45 3.5 °F -1.7 °F 999.2 in Calm   3.2 mph 69 % 0.0 in
15:00 3.8 °F -0.8 °F 999.2 in Calm   3.2 mph 72 % 0.0 in
15:15 4.1 °F -1.1 °F 999.2 in NNW 1.6 mph 6.4 mph 69 % 0.0 in
15:30 3.2 °F -1.3 °F 999.2 in Calm   1.6 mph 72 % 0.0 in
15:45 2.8 °F -1.6 °F 999.2 in Calm   1.6 mph 73 % 0.0 in
16:00 3.4 °F -1.3 °F 998.9 in Calm   6.4 mph 71 % 0.0 in
16:15 3.2 °F -1.4 °F 998.9 in Calm   1.6 mph 72 % 0.0 in
16:30 3.1 °F -0.9 °F 998.9 in Calm   4.8 mph 75 % 0.0 in
16:45 3.0 °F -1.0 °F 998.9 in Calm   3.2 mph 75 % 0.0 in
17:00 2.7 °F -1.3 °F 998.9 in Calm   3.2 mph 75 % 0.0 in
17:15 2.7 °F -1.1 °F 998.9 in Calm   3.2 mph 76 % 0.0 in
17:30 2.6 °F -1.6 °F 998.9 in Calm   6.4 mph 74 % 0.0 in
17:45 2.6 °F -1.4 °F 998.9 in Calm   4.8 mph 75 % 0.0 in
18:00 2.4 °F -1.2 °F 998.9 in Calm   3.2 mph 77 % 0.0 in
18:15 2.0 °F -1.4 °F 998.9 in Calm   3.2 mph 78 % 0.0 in
18:30 1.8 °F -1.3 °F 998.9 in Calm   3.2 mph 80 % 0.0 in
18:45 1.7 °F -1.4 °F 998.5 in Calm   3.2 mph 80 % 0.0 in
19:00 1.7 °F -1.4 °F 998.5 in Calm   1.6 mph 80 % 0.0 in
19:15 1.6 °F -1.3 °F 998.5 in Calm   1.6 mph 81 % 0.0 in
19:30 1.4 °F -1.5 °F 998.5 in Calm   1.6 mph 81 % 0.8 in
19:45 1.2 °F -1.7 °F 998.5 in Calm   1.6 mph 81 % 0.8 in
20:00 1.0 °F -1.7 °F 998.5 in Calm   1.6 mph 82 % 0.8 in
20:15 0.7 °F -1.7 °F 998.9 in Calm   4.8 mph 84 % 0.8 in
20:30 0.4 °F -1.8 °F 998.9 in Calm   1.6 mph 85 % 0.0 in
20:45 0.2 °F -1.9 °F 998.9 in Calm   3.2 mph 86 % 0.0 in
21:00 -0.1 °F -1.8 °F 998.9 in Calm     88 % 0.0 in
21:15 -0.2 °F -1.9 °F 998.9 in Calm     88 % 0.0 in
21:30 -0.3 °F -1.9 °F 998.9 in Calm     89 % 0.0 in
21:45 -0.3 °F -1.9 °F 998.9 in Calm   1.6 mph 89 % 0.0 in
22:00 -0.4 °F -2.0 °F 998.9 in Calm   1.6 mph 89 % 0.0 in
22:15 -0.5 °F -2.1 °F 998.9 in Calm   1.6 mph 89 % 0.0 in
22:30 -0.6 °F -2.0 °F 998.9 in Calm   4.8 mph 90 % 0.0 in
22:45 -0.7 °F -2.0 °F 998.9 in Calm   1.6 mph 91 % 0.0 in
23:00 -0.8 °F -2.1 °F 998.9 in Calm   6.4 mph 91 % 0.0 in
23:15 -0.9 °F -2.2 °F 998.9 in Calm   4.8 mph 91 % 0.0 in
23:30 -1.1 °F -2.3 °F 998.9 in Calm   3.2 mph 91 % 0.0 in
23:45 -1.2 °F -2.4 °F 998.9 in Calm   4.8 mph 91 % 0.0 in
Esan sääasema
Terveisin Weather Underground - 2.75 mb

Alkuperäinen skripti  Jim McMurry - jmcmurry@mwt.net Sovitettu myös templatelle  Wim van der Kuil - Leuven-Template.eu

Laitteet joita käytämme:

Sääasema
Davis VP2

Sääasemaohjelma
Cumulus

Sääaseman tietokone
Asus EeePC

Palveluntarjoaja
Suncomet

Davis VP2

Cumulus

Asus EeePC

Suncomet